메인 페이지
METAR-TAF:

METAR-TAF

공항 :

캉쿤 국제공항

칸쿤, 멕시코

위도: 21-02N, 경도: 086-52W, 고도: 5m

현재 날씨관측

예보는 23분 전, 06:41시(UTC)에 발표되었습니다.
동남동11kt
온도 25°C
습도 89%
기압 1012 hPa
시정: 8.0km
고도 1200ft 상공 흐림, 적란운.
약한비

METAR: MMUN 210641Z 12011KT 5SM -RA OVC012CB 25/23 A2988 RMK 8/3// VRB COND

시각: 02:04 (07:04 UTC)

예보

예보는 29분 전, 06:35시(UTC)에 발표되었습니다.
예보 대상 시간: 21일 06시부터 22일 06시까지 (UTC)
남동10kt, 순간 최대 풍속 20kt
시정: 9.7km
고도 1500ft 상공 구름 많음
고도 7000ft 상공 흐림
연무
일시적
21일 10시부터 21일 14시까지 (UTC)
시정: 4.8km
고도 1200ft 상공 구름 많음, 적란운.
뇌우, 비
21일 1600시부터 (UTC)
동남동15kt
시정: 9.7km
고도 1500ft 상공 구름 많음
고도 8000ft 상공 구름 많음
고도 24000ft 상공 구름 많음
약한비
일시적
21일 18시부터 21일 22시까지 (UTC)
시정: 4.8km
고도 1000ft 상공 구름 많음, 적란운.
뇌우, 비,

TAF: MMUN 210635Z 2106/2206 13010G20KT 6SM HZ BKN015 OVC070 TX30/2119Z TN27/2110Z TEMPO 2110/2114 3SM TSRA BKN012CB FM211600 12015KT 6SM -RA BKN015 BKN080 BKN240 TEMPO 2118/2122 3SM TSRA BKN010CB

4,000개 이상의 공항 관측 자료 및 예보 (METAR 및 TAF 보고).

지도상에서 검색 가능한 기상관측소가 노란 점과 빨간 점으로 표시되어 있습니다.

기상관측소 명을 보려면 표시 위로 마우스를 이동하세요.

날씨 관측과 예보를 보려면 클릭하세요.

지도 변경 : 확대하려면 엑스 표시가 있는 녹색 버튼, 축소하려면 빼기 표시가 있는 녹색 버튼, 다음 페이지의 지도를 보려면 녹색 화살표를 클릭하세요.


METAR-TAF: